Time;durP1;ratioP1;P1;durP2;ratioP2;P2;SDS_P1;SDS_P2;PMS_P1;PMS_P2;Temp;Humidity;BMP_temperature;BMP_pressure;BME280_temperature;BME280_humidity;BME280_pressure;Samples;Min_cycle;Max_cycle;Signal;HPM_P1;HPM_P2
2022/07/24 00:02:24;;;;;;;7.85;5.38;;;16.30;99.90;;;;;;5020005;28;20053;-94
2022/07/24 00:04:49;;;;;;;8.40;5.80;;;16.30;99.90;;;;;;5019118;28;20271;-95
2022/07/24 00:07:16;;;;;;;7.88;5.57;;;16.30;99.90;;;;;;5019290;28;20068;-93
2022/07/24 00:09:41;;;;;;;9.05;5.88;;;16.40;99.90;;;;;;5035041;28;20083;-93
2022/07/24 00:12:07;;;;;;;8.55;5.88;;;16.40;99.90;;;;;;5021360;28;20041;-94
2022/07/24 00:14:33;;;;;;;8.55;5.65;;;16.30;99.90;;;;;;5036049;28;20049;-94
2022/07/24 00:16:59;;;;;;;8.02;5.85;;;16.30;99.90;;;;;;5018851;28;20041;-94
2022/07/24 00:19:25;;;;;;;8.80;5.70;;;16.20;99.90;;;;;;5035910;28;20045;-94
2022/07/24 00:21:50;;;;;;;8.63;6.38;;;16.20;99.90;;;;;;5052998;28;20060;-93
2022/07/24 00:24:16;;;;;;;8.88;6.30;;;16.20;99.90;;;;;;5018399;28;20052;-93
2022/07/24 00:26:42;;;;;;;9.20;6.50;;;16.30;99.90;;;;;;5053006;28;20064;-95
2022/07/24 00:29:08;;;;;;;8.75;6.40;;;16.20;99.90;;;;;;5033741;28;20051;-93
2022/07/24 00:31:34;;;;;;;8.73;6.35;;;16.20;99.90;;;;;;5035278;28;20132;-93
2022/07/24 00:33:59;;;;;;;8.82;6.72;;;16.20;99.90;;;;;;5011221;28;20127;-92
2022/07/24 00:36:25;;;;;;;9.27;6.38;;;16.20;99.90;;;;;;5019403;28;20565;-94
2022/07/24 00:38:51;;;;;;;10.07;6.47;;;16.10;99.90;;;;;;5035439;28;20460;-93
2022/07/24 00:41:17;;;;;;;10.77;7.28;;;16.10;99.90;;;;;;5018573;28;20037;-95
2022/07/24 00:44:03;;;;;;;8.88;6.05;;;16.10;99.90;;;;;;5033811;28;20068;-92
2022/07/24 00:46:29;;;;;;;8.80;6.88;;;16.00;99.90;;;;;;5018161;28;20106;-93
2022/07/24 00:48:54;;;;;;;9.02;6.40;;;16.10;99.90;;;;;;5034536;28;20036;-92
2022/07/24 00:51:20;;;;;;;9.38;6.57;;;16.00;99.90;;;;;;5035761;28;20125;-93
2022/07/24 00:53:46;;;;;;;9.13;6.93;;;16.10;99.90;;;;;;5019221;28;20466;-92
2022/07/24 00:56:13;;;;;;;9.95;7.20;;;16.10;99.90;;;;;;5006410;28;20041;-93
2022/07/24 00:58:39;;;;;;;9.05;7.13;;;16.00;99.90;;;;;;5021752;28;20125;-94
2022/07/24 01:01:05;;;;;;;9.02;7.10;;;16.00;99.90;;;;;;5032693;28;20057;-93
2022/07/24 01:03:30;;;;;;;9.50;7.57;;;16.00;99.90;;;;;;5051711;28;20159;-94
2022/07/24 01:05:57;;;;;;;9.73;7.35;;;16.00;99.90;;;;;;5034633;28;20037;-93
2022/07/24 01:08:22;;;;;;;11.32;7.60;;;15.90;99.90;;;;;;5018345;28;20060;-94
2022/07/24 01:10:48;;;;;;;11.20;7.28;;;16.00;99.90;;;;;;5051341;28;20041;-93
2022/07/24 01:13:14;;;;;;;9.18;6.90;;;15.90;99.90;;;;;;5034140;28;20146;-93
2022/07/24 01:15:40;;;;;;;9.80;7.60;;;16.00;99.90;;;;;;5017111;28;20194;-92
2022/07/24 01:18:06;;;;;;;9.75;7.47;;;15.90;99.90;;;;;;5032439;28;20055;-90
2022/07/24 01:20:36;;;;;;;9.10;7.35;;;15.90;99.90;;;;;;5032710;28;20120;-91
2022/07/24 01:23:02;;;;;;;10.35;8.32;;;16.00;99.90;;;;;;5030985;28;20075;-91
2022/07/24 01:25:28;;;;;;;10.57;7.90;;;15.80;99.90;;;;;;5030095;28;20490;-91
2022/07/24 01:27:54;;;;;;;10.60;7.40;;;15.90;99.90;;;;;;5049539;28;20044;-91
2022/07/24 01:30:20;;;;;;;11.02;7.28;;;15.90;99.90;;;;;;5050366;28;20565;-91
2022/07/24 01:32:45;;;;;;;12.25;8.73;;;15.80;99.90;;;;;;5015244;28;20044;-91
2022/07/24 01:35:11;;;;;;;11.23;8.68;;;15.80;99.90;;;;;;5015509;28;20052;-91
2022/07/24 01:37:37;;;;;;;11.50;9.35;;;15.80;99.90;;;;;;5032984;28;20405;-91
2022/07/24 01:40:03;;;;;;;11.18;9.88;;;15.90;99.90;;;;;;5031385;28;20040;-92
2022/07/24 01:42:28;;;;;;;11.30;9.60;;;15.80;99.90;;;;;;5033310;28;20159;-91
2022/07/24 01:44:54;;;;;;;10.73;8.90;;;15.90;99.90;;;;;;5016045;28;20048;-90
2022/07/24 01:47:20;;;;;;;10.95;9.30;;;15.80;99.90;;;;;;5032215;28;20104;-91
2022/07/24 01:49:45;;;;;;;11.50;9.55;;;15.80;99.90;;;;;;5030802;28;20045;-91
2022/07/24 01:52:11;;;;;;;10.88;9.52;;;15.80;99.90;;;;;;5050632;28;20398;-90
2022/07/24 01:54:36;;;;;;;11.32;9.68;;;15.80;99.90;;;;;;5028051;28;20523;-91
2022/07/24 01:57:02;;;;;;;12.05;10.25;;;15.90;99.90;;;;;;5026816;28;20123;-91
2022/07/24 01:59:28;;;;;;;11.85;9.90;;;15.80;99.90;;;;;;5030048;28;20073;-92
2022/07/24 02:01:54;;;;;;;11.48;9.68;;;15.90;99.90;;;;;;5046322;28;20071;-91
2022/07/24 02:04:19;;;;;;;11.80;8.82;;;15.80;99.90;;;;;;5049437;28;20049;-90
2022/07/24 02:06:45;;;;;;;11.10;8.93;;;15.80;99.90;;;;;;5030511;28;20402;-92
2022/07/24 02:09:10;;;;;;;13.20;10.10;;;15.80;99.90;;;;;;5022891;28;20060;-91
2022/07/24 02:11:36;;;;;;;11.88;9.88;;;15.80;99.90;;;;;;5025030;28;20504;-92
2022/07/24 02:14:02;;;;;;;11.90;10.40;;;15.80;99.90;;;;;;5047996;28;20098;-90
2022/07/24 02:16:28;;;;;;;13.57;10.10;;;15.80;99.90;;;;;;5013297;28;20408;-90
2022/07/24 02:18:53;;;;;;;11.13;9.90;;;15.80;99.90;;;;;;5011793;28;20033;-91
2022/07/24 02:21:19;;;;;;;13.57;9.77;;;15.80;99.90;;;;;;5023981;28;20103;-91
2022/07/24 02:23:44;;;;;;;11.98;10.40;;;15.80;99.90;;;;;;5011703;28;20051;-91
2022/07/24 02:26:10;;;;;;;12.63;10.20;;;15.80;99.90;;;;;;4996712;28;20124;-90
2022/07/24 02:28:36;;;;;;;11.00;9.43;;;15.70;99.90;;;;;;5012118;28;20040;-91
2022/07/24 02:31:01;;;;;;;12.45;10.15;;;15.70;99.90;;;;;;4995529;28;20045;-92
2022/07/24 02:33:27;;;;;;;12.55;10.70;;;15.70;99.90;;;;;;5037573;28;20044;-91
2022/07/24 02:35:53;;;;;;;11.43;9.82;;;15.70;99.90;;;;;;5002898;28;20114;-91
2022/07/24 02:38:18;;;;;;;12.40;10.20;;;15.70;99.90;;;;;;5007022;28;20034;-91
2022/07/24 02:40:44;;;;;;;12.30;9.65;;;15.70;99.90;;;;;;5016711;28;20048;-91
2022/07/24 02:43:09;;;;;;;12.60;10.32;;;15.70;99.90;;;;;;5016409;28;20081;-90
2022/07/24 02:45:36;;;;;;;12.65;10.57;;;15.60;99.90;;;;;;4997338;28;20489;-90
2022/07/24 02:48:01;;;;;;;11.75;10.15;;;15.60;99.90;;;;;;5028746;28;20037;-90
2022/07/24 02:50:31;;;;;;;12.65;10.07;;;15.60;99.90;;;;;;5008733;28;20095;-91
2022/07/24 02:52:57;;;;;;;12.95;10.15;;;15.50;99.90;;;;;;5013628;28;20042;-90
2022/07/24 02:55:22;;;;;;;12.10;10.35;;;15.50;99.90;;;;;;5016466;28;20121;-90
2022/07/24 02:57:48;;;;;;;11.55;9.68;;;15.50;99.90;;;;;;5003360;28;20102;-90
2022/07/24 03:00:16;;;;;;;11.25;9.38;;;15.50;99.90;;;;;;5018898;28;20088;-91
2022/07/24 03:02:42;;;;;;;11.52;9.70;;;15.50;99.90;;;;;;5014531;28;20040;-90
2022/07/24 03:05:09;;;;;;;11.60;10.15;;;15.50;99.90;;;;;;5034666;28;20041;-91
2022/07/24 03:07:36;;;;;;;11.55;9.68;;;15.40;99.90;;;;;;5001490;28;20124;-91
2022/07/24 03:10:03;;;;;;;12.40;10.40;;;15.40;99.90;;;;;;5034514;28;20053;-91
2022/07/24 03:12:29;;;;;;;11.85;10.60;;;15.40;99.90;;;;;;5020060;28;20112;-91
2022/07/24 03:14:55;;;;;;;11.73;9.88;;;15.40;99.90;;;;;;5052263;28;20076;-90
2022/07/24 03:17:20;;;;;;;12.50;10.13;;;15.40;99.90;;;;;;5035552;28;20406;-91
2022/07/24 03:19:46;;;;;;;12.70;10.60;;;15.30;99.90;;;;;;5018781;28;20094;-91
2022/07/24 03:22:12;;;;;;;12.20;9.35;;;15.30;99.90;;;;;;5053152;28;20098;-91
2022/07/24 03:24:37;;;;;;;12.25;9.85;;;15.30;99.90;;;;;;5033781;28;20417;-91
2022/07/24 03:27:03;;;;;;;12.98;10.23;;;15.30;99.90;;;;;;5033046;28;20045;-90
2022/07/24 03:29:28;;;;;;;12.07;9.80;;;15.30;99.90;;;;;;5034409;28;20485;-92
2022/07/24 03:31:54;;;;;;;12.25;10.35;;;15.30;99.90;;;;;;5037893;28;20040;-91
2022/07/24 03:34:20;;;;;;;14.02;10.57;;;15.40;99.90;;;;;;5039597;28;20486;-92
2022/07/24 03:36:45;;;;;;;12.65;10.07;;;15.40;99.90;;;;;;5022441;28;20083;-91
2022/07/24 03:39:11;;;;;;;14.07;10.30;;;15.40;99.90;;;;;;5017758;28;20045;-92
2022/07/24 03:41:37;;;;;;;13.77;10.30;;;15.40;99.90;;;;;;5034870;28;20478;-90
2022/07/24 03:44:02;;;;;;;11.90;10.05;;;15.30;99.90;;;;;;5033263;28;20084;-91
2022/07/24 03:46:28;;;;;;;14.13;10.75;;;15.30;99.90;;;;;;5016857;28;20037;-90
2022/07/24 03:48:55;;;;;;;14.07;10.85;;;15.30;99.90;;;;;;5034065;28;20043;-91
2022/07/24 03:51:21;;;;;;;13.43;10.50;;;15.30;99.90;;;;;;5017881;28;20098;-91
2022/07/24 03:53:47;;;;;;;12.05;10.25;;;15.30;99.90;;;;;;5031348;28;20526;-92
2022/07/24 03:56:13;;;;;;;14.05;11.05;;;15.30;99.90;;;;;;5033846;28;20493;-90
2022/07/24 03:58:39;;;;;;;14.95;10.52;;;15.40;99.90;;;;;;5051949;28;20079;-91
2022/07/24 04:01:04;;;;;;;11.80;9.93;;;15.40;99.90;;;;;;5033109;28;20620;-90
2022/07/24 04:03:30;;;;;;;18.65;10.85;;;15.50;99.90;;;;;;5017989;28;20098;-91
2022/07/24 04:05:56;;;;;;;14.05;10.35;;;15.50;99.90;;;;;;5034371;28;20080;-90
2022/07/24 04:08:21;;;;;;;13.70;10.32;;;15.50;99.90;;;;;;5053005;28;20124;-91
2022/07/24 04:10:48;;;;;;;14.32;9.68;;;15.60;99.90;;;;;;5050432;28;20044;-90
2022/07/24 04:13:13;;;;;;;11.88;9.77;;;15.60;99.90;;;;;;5032908;28;20056;-91
2022/07/24 04:15:39;;;;;;;13.00;10.20;;;15.60;99.90;;;;;;5035251;28;20041;-91
2022/07/24 04:18:05;;;;;;;16.13;10.40;;;15.70;99.90;;;;;;5034132;28;20049;-90
2022/07/24 04:20:30;;;;;;;12.45;10.02;;;15.70;99.90;;;;;;5051497;28;20059;-91
2022/07/24 04:22:56;;;;;;;13.65;9.50;;;15.70;99.90;;;;;;5015705;28;20041;-90
2022/07/24 04:25:21;;;;;;;12.98;10.00;;;15.70;99.90;;;;;;5016367;28;20379;-90
2022/07/24 04:27:47;;;;;;;12.85;10.18;;;15.70;99.90;;;;;;5016182;28;20478;-91
2022/07/24 04:30:13;;;;;;;12.40;9.70;;;15.70;99.90;;;;;;5034856;28;20090;-90
2022/07/24 04:32:39;;;;;;;12.32;9.95;;;15.80;99.90;;;;;;5018422;28;20043;-91
2022/07/24 04:35:06;;;;;;;11.85;9.75;;;15.80;99.90;;;;;;5051276;28;20460;-91
2022/07/24 04:37:32;;;;;;;12.68;9.70;;;15.80;99.90;;;;;;5034044;28;20047;-90
2022/07/24 04:39:58;;;;;;;11.73;9.27;;;15.80;99.90;;;;;;5014590;28;20056;-91
2022/07/24 04:42:23;;;;;;;12.02;8.90;;;15.80;99.90;;;;;;5051431;28;20052;-90
2022/07/24 04:44:49;;;;;;;10.60;8.70;;;15.80;99.90;;;;;;5033282;28;20386;-91
2022/07/24 04:47:15;;;;;;;10.98;9.05;;;15.90;99.90;;;;;;5033968;28;20044;-90
2022/07/24 04:49:41;;;;;;;11.50;9.35;;;15.80;99.90;;;;;;5050720;28;20543;-91
2022/07/24 04:52:06;;;;;;;12.07;9.30;;;16.00;99.90;;;;;;5031637;28;20037;-91
2022/07/24 04:54:32;;;;;;;12.15;9.20;;;15.90;99.90;;;;;;5033211;28;20276;-90
2022/07/24 04:56:58;;;;;;;12.02;8.98;;;15.90;99.90;;;;;;5032755;28;20418;-91
2022/07/24 04:59:23;;;;;;;11.60;8.85;;;16.10;99.90;;;;;;5051446;28;20051;-92
2022/07/24 05:01:49;;;;;;;10.27;8.50;;;16.00;99.90;;;;;;5049283;28;20043;-91
2022/07/24 05:04:15;;;;;;;12.00;9.05;;;16.10;99.90;;;;;;5032800;28;20045;-90
2022/07/24 05:06:41;;;;;;;10.30;8.43;;;16.10;99.90;;;;;;5017051;28;20051;-92
2022/07/24 05:09:07;;;;;;;13.15;9.40;;;16.20;99.90;;;;;;5030335;28;20448;-91
2022/07/24 05:11:32;;;;;;;10.77;9.15;;;16.20;99.90;;;;;;5032282;28;20098;-92
2022/07/24 05:13:58;;;;;;;13.52;9.02;;;16.30;99.90;;;;;;5016892;28;20045;-90
2022/07/24 05:16:23;;;;;;;12.10;9.30;;;16.40;99.90;;;;;;5015289;28;20080;-91
2022/07/24 05:18:49;;;;;;;12.63;9.18;;;16.40;99.90;;;;;;5051291;28;20045;-93
2022/07/24 05:21:15;;;;;;;10.90;8.75;;;16.40;99.90;;;;;;5034463;28;20068;-94
2022/07/24 05:23:42;;;;;;;11.45;8.75;;;16.50;99.90;;;;;;5032079;28;20037;-93
2022/07/24 05:26:08;;;;;;;11.45;9.35;;;16.40;99.90;;;;;;5015351;28;20056;-93
2022/07/24 05:28:34;;;;;;;10.80;9.13;;;16.60;99.90;;;;;;5016268;28;20037;-92
2022/07/24 05:30:59;;;;;;;11.93;8.90;;;16.70;99.90;;;;;;5017031;28;20136;-94
2022/07/24 05:33:25;;;;;;;10.77;9.15;;;16.80;99.90;;;;;;5016435;28;20402;-93
2022/07/24 05:35:51;;;;;;;12.10;9.10;;;17.00;99.90;;;;;;5015613;28;20452;-93
2022/07/24 05:38:16;;;;;;;12.65;8.80;;;17.10;99.90;;;;;;5010379;28;20040;-93
2022/07/24 05:40:42;;;;;;;10.88;9.35;;;17.30;99.90;;;;;;5032793;28;20036;-95
2022/07/24 05:43:07;;;;;;;11.15;9.00;;;17.40;99.90;;;;;;5015719;28;20474;-95
2022/07/24 05:45:33;;;;;;;11.63;9.50;;;17.40;99.90;;;;;;5016744;28;20485;-93
2022/07/24 05:47:59;;;;;;;11.85;9.88;;;17.40;99.90;;;;;;5023254;28;20025;-96
2022/07/24 05:50:24;;;;;;;13.05;9.63;;;17.50;99.90;;;;;;5047896;28;20053;-94
2022/07/24 05:52:50;;;;;;;12.27;10.15;;;17.60;99.90;;;;;;5060308;28;20097;-95
2022/07/24 05:55:15;;;;;;;11.13;9.90;;;17.60;99.90;;;;;;5028663;28;20049;-96
2022/07/24 05:57:41;;;;;;;12.95;10.57;;;17.80;99.90;;;;;;5038555;28;20024;-96
2022/07/24 06:00:09;;;;;;;13.05;10.63;;;17.90;99.90;;;;;;5053444;28;20055;-95
2022/07/24 06:02:34;;;;;;;13.75;11.63;;;17.90;99.90;;;;;;5036099;28;20033;-95
2022/07/24 06:05:00;;;;;;;12.88;10.70;;;17.90;99.90;;;;;;5045620;28;20107;-95
2022/07/24 06:07:26;;;;;;;13.07;10.98;;;18.00;99.90;;;;;;5052657;23;20041;-95
2022/07/24 06:09:52;;;;;;;13.18;11.38;;;18.00;99.90;;;;;;4996032;28;20041;-93
2022/07/24 06:12:17;;;;;;;12.50;11.20;;;18.10;99.90;;;;;;5011870;28;20040;-93
2022/07/24 06:14:43;;;;;;;13.60;11.35;;;18.10;99.90;;;;;;5011944;28;20493;-93
2022/07/24 06:17:09;;;;;;;13.25;11.27;;;18.30;99.90;;;;;;4996780;28;20523;-93
2022/07/24 06:19:35;;;;;;;13.38;11.98;;;18.30;99.90;;;;;;5015533;28;20049;-93
2022/07/24 06:22:01;;;;;;;13.75;12.02;;;18.50;99.90;;;;;;5016402;28;20415;-92
2022/07/24 06:24:26;;;;;;;13.85;12.38;;;18.60;99.90;;;;;;5015547;28;20033;-90
2022/07/24 06:26:52;;;;;;;14.90;13.05;;;18.60;99.90;;;;;;4995530;28;20045;-94
2022/07/24 06:29:18;;;;;;;15.52;13.63;;;18.70;99.90;;;;;;5033544;28;20076;-91
2022/07/24 06:31:43;;;;;;;15.80;13.48;;;18.80;99.90;;;;;;4999347;28;20045;-91
2022/07/24 06:34:09;;;;;;;15.35;13.50;;;18.90;99.90;;;;;;4999842;28;20418;-92
2022/07/24 06:36:34;;;;;;;15.60;13.80;;;19.00;99.90;;;;;;5016771;28;20041;-92
2022/07/24 06:39:00;;;;;;;16.63;14.85;;;19.00;99.90;;;;;;5032288;28;20120;-91
2022/07/24 06:41:26;;;;;;;16.63;14.85;;;19.20;99.90;;;;;;5014802;28;20041;-92
2022/07/24 06:43:51;;;;;;;17.42;14.48;;;19.30;99.90;;;;;;5033009;28;20041;-91
2022/07/24 06:46:17;;;;;;;18.30;15.30;;;19.40;99.90;;;;;;5034038;28;20103;-91
2022/07/24 06:48:43;;;;;;;17.08;15.15;;;19.40;99.90;;;;;;5015801;28;20056;-93
2022/07/24 06:51:08;;;;;;;18.15;15.40;;;19.40;99.90;;;;;;4999488;28;20046;-90
2022/07/24 06:53:34;;;;;;;18.70;15.82;;;19.50;99.90;;;;;;5016312;28;20402;-92
2022/07/24 06:56:01;;;;;;;17.58;15.52;;;19.50;99.90;;;;;;5013367;28;20049;-92
2022/07/24 06:58:27;;;;;;;18.10;16.20;;;19.50;99.90;;;;;;5032994;28;20493;-91
2022/07/24 07:00:52;;;;;;;17.83;15.75;;;19.70;99.90;;;;;;5015040;28;20077;-91
2022/07/24 07:03:18;;;;;;;17.75;15.85;;;19.90;99.90;;;;;;5191288;22;20702;-95
2022/07/24 07:05:44;;;;;;;18.90;16.05;;;19.90;99.90;;;;;;5050299;28;20478;-95
2022/07/24 07:08:10;;;;;;;18.17;16.02;;;20.00;99.90;;;;;;5027577;28;20045;-93
2022/07/24 07:10:36;;;;;;;18.40;16.60;;;20.10;99.90;;;;;;5024142;28;20045;-93
2022/07/24 07:13:01;;;;;;;17.88;15.85;;;20.20;99.90;;;;;;5018347;28;20048;-93
2022/07/24 07:15:27;;;;;;;18.00;16.08;;;20.20;99.90;;;;;;5033060;28;20041;-92
2022/07/24 07:17:53;;;;;;;18.88;16.60;;;20.30;99.90;;;;;;5052051;28;20025;-94
2022/07/24 07:20:18;;;;;;;18.35;16.35;;;20.40;99.90;;;;;;5055207;28;20120;-96
2022/07/24 07:22:47;;;;;;;17.83;16.02;;;20.40;99.90;;;;;;5072628;23;20062;-96
2022/07/24 07:25:13;;;;;;;18.83;16.85;;;20.60;99.90;;;;;;5037436;28;20052;-96
2022/07/24 07:30:14;;;;;;;18.25;16.35;;;20.70;99.90;;;;;;5519286;22;20057;-93
2022/07/24 07:35:31;;;;;;;19.40;16.88;;;20.90;99.90;;;;;;5473813;22;20037;-96
2022/07/24 07:37:57;;;;;;;18.60;16.52;;;21.00;99.90;;;;;;5193188;22;20049;-93
2022/07/24 07:40:25;;;;;;;19.02;17.13;;;21.10;99.90;;;;;;5038842;28;20069;-95
2022/07/24 07:42:51;;;;;;;18.35;16.45;;;21.30;99.90;;;;;;5021130;28;20045;-92
2022/07/24 07:45:17;;;;;;;18.17;16.27;;;21.30;99.90;;;;;;5036766;28;20056;-93
2022/07/24 07:47:43;;;;;;;17.38;15.48;;;21.40;99.90;;;;;;5040849;28;20039;-94
2022/07/24 07:50:09;;;;;;;17.65;15.75;;;21.50;99.90;;;;;;5032743;28;20075;-95
2022/07/24 07:52:35;;;;;;;17.35;15.45;;;21.70;99.90;;;;;;5037377;28;20041;-94
2022/07/24 07:55:01;;;;;;;17.33;15.38;;;21.70;99.90;;;;;;5014823;28;20394;-94
2022/07/24 07:57:27;;;;;;;18.13;14.77;;;21.80;99.90;;;;;;5015147;28;20103;-94
2022/07/24 07:59:53;;;;;;;19.73;15.43;;;22.00;99.90;;;;;;5014847;28;20076;-93
2022/07/24 08:02:18;;;;;;;16.17;14.35;;;22.00;99.90;;;;;;5031603;28;20077;-92
2022/07/24 08:04:44;;;;;;;17.15;13.95;;;22.00;99.90;;;;;;5032616;28;20434;-93
2022/07/24 08:07:10;;;;;;;13.48;11.13;;;22.10;99.90;;;;;;5033295;28;20475;-93
2022/07/24 08:09:37;;;;;;;12.57;9.02;;;22.10;99.90;;;;;;5033092;28;20088;-92
2022/07/24 08:12:04;;;;;;;12.10;7.55;;;22.20;99.90;;;;;;5013043;28;20056;-93
2022/07/24 08:14:30;;;;;;;11.52;7.78;;;22.20;99.90;;;;;;5032830;28;20416;-91
2022/07/24 08:16:55;;;;;;;11.05;8.10;;;22.20;99.90;;;;;;5032341;28;20041;-90
2022/07/24 08:19:21;;;;;;;11.05;6.82;;;22.30;99.90;;;;;;5032305;28;20045;-92
2022/07/24 08:21:47;;;;;;;10.15;6.78;;;22.40;99.90;;;;;;5030950;28;20052;-91
2022/07/24 08:24:13;;;;;;;10.15;6.43;;;22.40;99.90;;;;;;5031424;28;20037;-91
2022/07/24 08:26:39;;;;;;;9.63;5.82;;;22.50;99.90;;;;;;5030751;28;20045;-90
2022/07/24 08:29:05;;;;;;;8.73;5.10;;;22.50;99.90;;;;;;5031752;28;20055;-92
2022/07/24 08:31:31;;;;;;;7.65;5.30;;;22.60;99.90;;;;;;5031921;28;20406;-92
2022/07/24 08:33:57;;;;;;;8.88;5.35;;;22.70;99.90;;;;;;5031567;28;20049;-91
2022/07/24 08:36:22;;;;;;;8.38;5.15;;;22.80;99.90;;;;;;5032627;28;20107;-91
2022/07/24 08:38:48;;;;;;;8.90;5.13;;;22.90;99.90;;;;;;5031162;28;20165;-92
2022/07/24 08:41:14;;;;;;;8.48;5.13;;;22.80;99.90;;;;;;5030840;28;20508;-91
2022/07/24 08:43:40;;;;;;;10.52;5.15;;;23.00;99.90;;;;;;5013912;28;20107;-92
2022/07/24 08:46:10;;;;;;;7.93;4.70;;;23.00;99.90;;;;;;5029900;28;20453;-92
2022/07/24 08:48:37;;;;;;;7.73;4.70;;;23.10;99.90;;;;;;5014218;28;20038;-92
2022/07/24 08:51:03;;;;;;;8.90;4.88;;;23.10;99.90;;;;;;4994318;28;20057;-92
2022/07/24 08:53:28;;;;;;;8.10;5.00;;;23.10;99.90;;;;;;5011433;28;20045;-93
2022/07/24 08:55:54;;;;;;;8.55;4.97;;;23.20;99.90;;;;;;5014549;28;20049;-92
2022/07/24 08:58:20;;;;;;;8.93;5.70;;;23.30;99.90;;;;;;5031580;28;20049;-92
2022/07/24 09:00:45;;;;;;;8.77;5.38;;;23.20;99.90;;;;;;5030761;28;20049;-91
2022/07/24 09:03:12;;;;;;;7.70;5.18;;;23.20;99.90;;;;;;5029964;28;20034;-92
2022/07/24 09:05:58;;;;;;;7.13;4.63;;;23.20;99.90;;;;;;5026648;28;20056;-92
2022/07/24 09:08:24;;;;;;;7.75;4.85;;;23.40;99.90;;;;;;5027971;28;20143;-92
2022/07/24 09:11:03;;;;;;;8.20;4.55;;;23.50;99.90;;;;;;5034808;28;20518;-96
2022/07/24 09:14:29;;;;;;;7.50;4.00;;;23.70;99.90;;;;;;5028557;28;20039;-92
2022/07/24 09:16:24;;;;;;;6.25;3.35;;;23.80;99.90;;;;;;5033500;28;20053;-92
2022/07/24 09:19:10;;;;;;;5.47;3.10;;;23.70;99.90;;;;;;5030242;28;20398;-93
2022/07/24 09:21:38;;;;;;;5.97;3.33;;;23.70;99.90;;;;;;5030681;28;20126;-93
2022/07/24 09:24:21;;;;;;;5.88;3.38;;;23.60;99.90;;;;;;5012165;28;20052;-93
2022/07/24 09:26:56;;;;;;;5.50;3.20;;;23.70;99.90;;;;;;5025043;28;20049;-92
2022/07/24 09:29:25;;;;;;;6.15;2.90;;;23.70;99.90;;;;;;5014758;28;20096;-93
2022/07/24 09:31:56;;;;;;;6.25;3.10;;;23.80;99.90;;;;;;5027219;28;20509;-92
2022/07/24 09:34:27;;;;;;;6.28;3.38;;;23.80;99.90;;;;;;5033503;28;20053;-95
2022/07/24 09:37:03;;;;;;;5.63;3.10;;;23.80;99.90;;;;;;5029221;28;20041;-92
2022/07/24 09:39:32;;;;;;;6.38;3.20;;;23.90;99.90;;;;;;5023166;28;20096;-96
2022/07/24 09:41:59;;;;;;;6.03;3.05;;;23.90;99.90;;;;;;5031708;28;20071;-95
2022/07/24 09:44:25;;;;;;;5.72;3.10;;;24.00;99.90;;;;;;5034291;28;20045;-92
2022/07/24 09:47:03;;;;;;;5.72;3.03;;;24.10;99.90;;;;;;5033440;28;20380;-94
2022/07/24 09:49:30;;;;;;;5.95;2.80;;;24.20;99.90;;;;;;5033498;28;20049;-96
2022/07/24 09:52:15;;;;;;;9.18;3.08;;;24.20;99.90;;;;;;5038903;28;20053;-96
2022/07/24 09:54:47;;;;;;;5.25;2.72;;;24.30;99.90;;;;;;5031181;28;20033;-92
2022/07/24 09:57:30;;;;;;;4.90;2.80;;;24.30;99.90;;;;;;5012342;28;20042;-94
2022/07/24 09:59:57;;;;;;;5.15;2.85;;;24.30;99.90;;;;;;5030195;28;20041;-94
2022/07/24 10:02:27;;;;;;;6.20;2.85;;;24.20;99.90;;;;;;5032754;28;20042;-95
2022/07/24 10:04:54;;;;;;;5.50;2.90;;;24.30;99.90;;;;;;5032969;28;20049;-91
2022/07/24 10:07:21;;;;;;;5.43;2.83;;;24.40;99.90;;;;;;5029557;28;20120;-92
2022/07/24 10:09:50;;;;;;;5.82;2.80;;;24.40;99.90;;;;;;5033142;28;20056;-93
2022/07/24 10:12:18;;;;;;;5.90;2.92;;;24.40;99.90;;;;;;5034921;28;20393;-94
2022/07/24 10:14:46;;;;;;;5.90;2.70;;;24.40;99.90;;;;;;5029556;28;20045;-92
2022/07/24 10:17:13;;;;;;;6.70;2.88;;;24.40;99.90;;;;;;5032174;28;20048;-92
2022/07/24 10:19:48;;;;;;;5.90;2.88;;;24.30;99.90;;;;;;5014861;28;20037;-91
2022/07/24 10:22:22;;;;;;;4.75;2.78;;;24.40;99.90;;;;;;5030007;28;20095;-92
2022/07/24 10:25:03;;;;;;;5.45;2.70;;;24.50;99.90;;;;;;5028727;28;20053;-92
2022/07/24 10:27:37;;;;;;;5.43;2.70;;;24.50;99.90;;;;;;5031051;28;20065;-93
2022/07/24 10:30:09;;;;;;;6.43;3.25;;;24.50;99.90;;;;;;5032063;28;20055;-92
2022/07/24 10:32:36;;;;;;;5.55;2.70;;;24.50;99.90;;;;;;5033529;28;20112;-95
2022/07/24 10:35:21;;;;;;;5.90;3.10;;;24.50;99.90;;;;;;5031125;28;20072;-92
2022/07/24 10:37:52;;;;;;;5.80;3.15;;;24.60;99.20;;;;;;5034587;28;20199;-95
2022/07/24 10:40:27;;;;;;;6.95;3.10;;;24.70;99.90;;;;;;5037237;28;20037;-96
2022/07/24 10:43:05;;;;;;;6.85;3.10;;;24.70;99.80;;;;;;5028556;28;20042;-93
2022/07/24 10:45:31;;;;;;;6.80;3.13;;;24.90;99.90;;;;;;5031132;28;20376;-95
2022/07/24 10:47:57;;;;;;;7.93;3.08;;;24.90;99.90;;;;;;5015806;28;20050;-96
2022/07/24 10:50:23;;;;;;;6.70;3.22;;;24.90;99.00;;;;;;5016865;28;20136;-93
2022/07/24 10:52:49;;;;;;;6.40;3.15;;;24.90;99.30;;;;;;5013215;28;20559;-93
2022/07/24 10:55:30;;;;;;;6.63;3.03;;;25.00;99.40;;;;;;5030649;28;20113;-92
2022/07/24 10:57:57;;;;;;;;;;;25.10;99.10;;;;;;5029531;28;20127;-92
2022/07/24 11:00:34;;;;;;;6.95;3.15;;;25.10;99.90;;;;;;5028862;28;20305;-94
2022/07/24 11:03:16;;;;;;;6.28;3.13;;;25.10;99.70;;;;;;5032456;28;20046;-92
2022/07/24 11:05:42;;;;;;;6.80;3.03;;;25.20;98.60;;;;;;5013716;28;20050;-95
2022/07/24 11:08:29;;;;;;;8.40;3.40;;;25.30;98.00;;;;;;5037022;28;20569;-91
2022/07/24 11:10:58;;;;;;;7.60;3.70;;;25.50;98.20;;;;;;5016464;28;20441;-92
2022/07/24 11:13:32;;;;;;;5.70;3.10;;;25.50;98.50;;;;;;5031073;28;20041;-93
2022/07/24 11:16:10;;;;;;;5.50;3.03;;;25.50;98.90;;;;;;5035033;28;20080;-96
2022/07/24 11:18:49;;;;;;;6.50;3.13;;;25.50;95.40;;;;;;5035671;28;20073;-95
2022/07/24 11:21:42;;;;;;;6.13;3.28;;;25.40;96.70;;;;;;5019000;28;20049;-94
2022/07/24 11:24:19;;;;;;;5.88;3.00;;;25.40;96.30;;;;;;5019590;28;20367;-91
2022/07/24 11:27:16;;;;;;;6.53;3.20;;;25.40;95.60;;;;;;5036705;28;20445;-95
2022/07/24 11:29:41;;;;;;;6.00;3.13;;;25.20;96.20;;;;;;5032833;28;20115;-95
2022/07/24 11:32:11;;;;;;;5.60;3.15;;;25.30;97.30;;;;;;5038340;28;20057;-95
2022/07/24 11:34:37;;;;;;;6.15;3.08;;;25.30;96.80;;;;;;5040054;28;20356;-94
2022/07/24 11:37:06;;;;;;;6.88;3.17;;;25.30;96.60;;;;;;5017719;28;20148;-94
2022/07/24 11:39:37;;;;;;;7.03;3.10;;;25.40;96.60;;;;;;5019421;28;20037;-95
2022/07/24 11:42:09;;;;;;;6.32;3.00;;;25.30;97.30;;;;;;5037737;28;20402;-92
2022/07/24 11:44:49;;;;;;;6.38;2.97;;;25.30;96.40;;;;;;5037130;28;20042;-94
2022/07/24 11:47:20;;;;;;;6.00;2.80;;;25.40;96.90;;;;;;5035423;28;20045;-94
2022/07/24 11:49:52;;;;;;;6.95;3.20;;;25.60;96.00;;;;;;5035694;28;20045;-96
2022/07/24 11:52:32;;;;;;;5.00;2.65;;;25.60;94.60;;;;;;5033569;28;20535;-95
2022/07/24 11:55:09;;;;;;;6.88;2.95;;;25.60;96.20;;;;;;5036517;28;20087;-96
2022/07/24 11:57:37;;;;;;;5.97;3.15;;;25.70;95.70;;;;;;5039133;28;20057;-95
2022/07/24 12:00:26;;;;;;;5.55;3.20;;;25.70;95.40;;;;;;5019396;28;20184;-96
2022/07/24 12:02:57;;;;;;;7.07;3.40;;;25.80;96.30;;;;;;5033686;28;20502;-95
2022/07/24 12:05:33;;;;;;;7.10;3.17;;;25.80;96.80;;;;;;5020725;28;20124;-95
2022/07/24 12:08:01;;;;;;;7.80;3.17;;;25.80;97.60;;;;;;5034827;28;20061;-93
2022/07/24 12:10:27;;;;;;;5.80;3.13;;;25.90;96.10;;;;;;5034132;28;20041;-93
2022/07/24 12:12:54;;;;;;;5.65;3.00;;;25.90;95.80;;;;;;5034853;28;20113;-95
2022/07/24 12:15:21;;;;;;;5.72;3.38;;;25.90;94.80;;;;;;5018532;28;20057;-96
2022/07/24 12:18:07;;;;;;;5.88;3.08;;;25.90;94.90;;;;;;5005136;28;20065;-95
2022/07/24 12:20:42;;;;;;;6.05;3.30;;;26.00;93.70;;;;;;5035411;28;20041;-95
2022/07/24 12:23:10;;;;;;;6.55;3.08;;;25.90;93.50;;;;;;5037000;28;20041;-96
2022/07/24 12:25:37;;;;;;;6.82;3.50;;;25.90;94.40;;;;;;5037647;28;20053;-95
2022/07/24 12:28:08;;;;;;;6.15;3.22;;;26.00;95.10;;;;;;5035165;28;20049;-96
2022/07/24 12:30:38;;;;;;;6.45;3.10;;;26.00;95.40;;;;;;5031206;28;20048;-96
2022/07/24 12:33:09;;;;;;;6.40;3.28;;;25.90;95.90;;;;;;5013908;28;20052;-95
2022/07/24 12:35:59;;;;;;;6.15;3.20;;;26.10;95.80;;;;;;5034998;28;20425;-94
2022/07/24 12:38:34;;;;;;;5.85;3.05;;;26.10;95.20;;;;;;5032318;28;20122;-95
2022/07/24 12:41:11;;;;;;;5.90;3.13;;;26.10;96.00;;;;;;5034549;28;20045;-93
2022/07/24 12:43:57;;;;;;;6.63;2.95;;;26.10;96.30;;;;;;5014543;28;20046;-92
2022/07/24 12:46:29;;;;;;;5.00;2.70;;;26.10;91.80;;;;;;5032012;28;20091;-91
2022/07/24 12:49:02;;;;;;;6.70;3.00;;;26.10;92.30;;;;;;5031318;28;20482;-93